sensor_id;sensor_type;location;lat;lon;timestamp;pressure;altitude;pressure_sealevel;temperature;humidity
62124;BME280;48110;47.532;19.078;2023-01-29T00:01:45;101110.31;;;0.31;100.00
62124;BME280;48110;47.532;19.078;2023-01-29T00:04:51;101112.91;;;0.31;100.00
62124;BME280;48110;47.532;19.078;2023-01-29T00:08:02;101109.78;;;0.24;100.00
62124;BME280;48110;47.532;19.078;2023-01-29T00:11:11;101113.00;;;0.29;100.00
62124;BME280;48110;47.532;19.078;2023-01-29T00:14:18;101118.53;;;0.39;100.00
62124;BME280;48110;47.532;19.078;2023-01-29T00:17:28;101125.13;;;0.30;100.00
62124;BME280;48110;47.532;19.078;2023-01-29T00:20:36;101123.88;;;0.22;100.00
62124;BME280;48110;47.532;19.078;2023-01-29T00:23:46;101121.19;;;0.23;100.00
62124;BME280;48110;47.532;19.078;2023-01-29T00:26:55;101129.66;;;0.11;100.00
62124;BME280;48110;47.532;19.078;2023-01-29T00:30:02;101131.59;;;0.08;100.00
62124;BME280;48110;47.532;19.078;2023-01-29T00:33:19;101140.34;;;0.07;100.00
62124;BME280;48110;47.532;19.078;2023-01-29T00:36:27;101141.63;;;-0.01;100.00
62124;BME280;48110;47.532;19.078;2023-01-29T00:39:38;101139.72;;;-0.14;100.00
62124;BME280;48110;47.532;19.078;2023-01-29T00:42:52;101141.94;;;-0.07;100.00
62124;BME280;48110;47.532;19.078;2023-01-29T00:46:16;101145.72;;;-0.12;100.00
62124;BME280;48110;47.532;19.078;2023-01-29T00:49:23;101149.22;;;-0.13;100.00
62124;BME280;48110;47.532;19.078;2023-01-29T00:52:32;101147.28;;;-0.25;100.00
62124;BME280;48110;47.532;19.078;2023-01-29T00:55:43;101148.13;;;-0.25;100.00
62124;BME280;48110;47.532;19.078;2023-01-29T00:58:52;101151.59;;;-0.24;100.00
62124;BME280;48110;47.532;19.078;2023-01-29T01:01:58;101154.97;;;-0.39;100.00
62124;BME280;48110;47.532;19.078;2023-01-29T01:05:23;101149.25;;;-0.63;100.00
62124;BME280;48110;47.532;19.078;2023-01-29T01:08:35;101150.09;;;-0.80;100.00
62124;BME280;48110;47.532;19.078;2023-01-29T01:12:00;101146.78;;;-0.66;100.00
62124;BME280;48110;47.532;19.078;2023-01-29T01:15:05;101147.72;;;-0.84;100.00
62124;BME280;48110;47.532;19.078;2023-01-29T01:18:10;101151.25;;;-0.85;100.00
62124;BME280;48110;47.532;19.078;2023-01-29T01:21:15;101146.66;;;-0.80;100.00
62124;BME280;48110;47.532;19.078;2023-01-29T01:24:20;101157.31;;;-0.85;100.00
62124;BME280;48110;47.532;19.078;2023-01-29T01:27:29;101154.47;;;-0.80;100.00
62124;BME280;48110;47.532;19.078;2023-01-29T01:30:36;101163.34;;;-0.84;100.00
62124;BME280;48110;47.532;19.078;2023-01-29T01:33:43;101161.03;;;-0.91;100.00
62124;BME280;48110;47.532;19.078;2023-01-29T01:36:47;101166.13;;;-0.88;100.00
62124;BME280;48110;47.532;19.078;2023-01-29T01:40:02;101160.97;;;-0.89;100.00
62124;BME280;48110;47.532;19.078;2023-01-29T01:43:10;101157.81;;;-0.96;100.00
62124;BME280;48110;47.532;19.078;2023-01-29T01:46:16;101174.06;;;-0.91;100.00
62124;BME280;48110;47.532;19.078;2023-01-29T01:49:21;101176.97;;;-0.97;100.00
62124;BME280;48110;47.532;19.078;2023-01-29T01:52:33;101173.38;;;-0.94;100.00
62124;BME280;48110;47.532;19.078;2023-01-29T01:55:44;101172.59;;;-0.96;100.00
62124;BME280;48110;47.532;19.078;2023-01-29T01:58:55;101170.38;;;-1.04;100.00
62124;BME280;48110;47.532;19.078;2023-01-29T02:02:06;101174.69;;;-0.85;100.00
62124;BME280;48110;47.532;19.078;2023-01-29T02:05:33;101166.72;;;-1.00;100.00
62124;BME280;48110;47.532;19.078;2023-01-29T02:09:04;101168.56;;;-1.02;100.00
62124;BME280;48110;47.532;19.078;2023-01-29T02:12:32;101172.78;;;-0.99;100.00
62124;BME280;48110;47.532;19.078;2023-01-29T02:15:39;101176.16;;;-0.97;100.00
62124;BME280;48110;47.532;19.078;2023-01-29T02:18:49;101178.97;;;-1.02;100.00
62124;BME280;48110;47.532;19.078;2023-01-29T02:28:37;101187.16;;;-1.09;100.00
62124;BME280;48110;47.532;19.078;2023-01-29T02:31:43;101185.31;;;-1.07;100.00
62124;BME280;48110;47.532;19.078;2023-01-29T02:38:25;101188.22;;;-1.13;100.00
62124;BME280;48110;47.532;19.078;2023-01-29T02:42:00;101193.50;;;-1.15;100.00
62124;BME280;48110;47.532;19.078;2023-01-29T02:48:17;101198.16;;;-1.21;100.00
62124;BME280;48110;47.532;19.078;2023-01-29T02:51:34;101206.09;;;-1.24;100.00
62124;BME280;48110;47.532;19.078;2023-01-29T02:58:10;101204.56;;;-1.28;100.00
62124;BME280;48110;47.532;19.078;2023-01-29T03:01:26;101217.66;;;-1.30;100.00
62124;BME280;48110;47.532;19.078;2023-01-29T03:04:36;101207.31;;;-1.32;100.00
62124;BME280;48110;47.532;19.078;2023-01-29T03:07:49;101213.59;;;-1.36;100.00
62124;BME280;48110;47.532;19.078;2023-01-29T03:11:00;101211.91;;;-1.37;100.00
62124;BME280;48110;47.532;19.078;2023-01-29T03:14:08;101208.81;;;-1.26;100.00
62124;BME280;48110;47.532;19.078;2023-01-29T03:17:19;101212.94;;;-1.22;100.00
62124;BME280;48110;47.532;19.078;2023-01-29T03:20:32;101215.44;;;-1.20;100.00
62124;BME280;48110;47.532;19.078;2023-01-29T03:23:41;101216.00;;;-1.14;100.00
62124;BME280;48110;47.532;19.078;2023-01-29T03:27:07;101217.81;;;-0.97;100.00
62124;BME280;48110;47.532;19.078;2023-01-29T03:30:35;101213.13;;;-0.91;100.00
62124;BME280;48110;47.532;19.078;2023-01-29T03:34:12;101229.84;;;-0.77;100.00
62124;BME280;48110;47.532;19.078;2023-01-29T03:37:43;101225.47;;;-0.77;100.00
62124;BME280;48110;47.532;19.078;2023-01-29T03:40:56;101226.34;;;-0.76;100.00
62124;BME280;48110;47.532;19.078;2023-01-29T03:44:27;101222.59;;;-0.71;100.00
62124;BME280;48110;47.532;19.078;2023-01-29T03:47:38;101238.78;;;-0.64;100.00
62124;BME280;48110;47.532;19.078;2023-01-29T03:50:55;101241.09;;;-0.58;100.00
62124;BME280;48110;47.532;19.078;2023-01-29T03:54:08;101236.69;;;-0.40;100.00
62124;BME280;48110;47.532;19.078;2023-01-29T03:57:21;101229.34;;;-0.50;100.00
62124;BME280;48110;47.532;19.078;2023-01-29T04:00:39;101225.97;;;-0.52;100.00
62124;BME280;48110;47.532;19.078;2023-01-29T04:04:08;101232.81;;;-0.49;100.00
62124;BME280;48110;47.532;19.078;2023-01-29T04:07:18;101222.53;;;-0.35;100.00
62124;BME280;48110;47.532;19.078;2023-01-29T04:10:37;101221.69;;;-0.35;100.00
62124;BME280;48110;47.532;19.078;2023-01-29T04:13:45;101215.63;;;-0.36;100.00
62124;BME280;48110;47.532;19.078;2023-01-29T04:16:57;101221.69;;;-0.35;100.00
62124;BME280;48110;47.532;19.078;2023-01-29T04:20:09;101227.34;;;-0.27;100.00
62124;BME280;48110;47.532;19.078;2023-01-29T04:23:24;101229.63;;;-0.21;100.00
62124;BME280;48110;47.532;19.078;2023-01-29T04:29:51;101220.72;;;-0.17;100.00
62124;BME280;48110;47.532;19.078;2023-01-29T04:36:35;101217.34;;;-0.19;100.00
62124;BME280;48110;47.532;19.078;2023-01-29T04:43:07;101231.00;;;-0.14;100.00
62124;BME280;48110;47.532;19.078;2023-01-29T04:46:30;101232.06;;;-0.18;100.00
62124;BME280;48110;47.532;19.078;2023-01-29T04:49:44;101231.69;;;-0.11;100.00
62124;BME280;48110;47.532;19.078;2023-01-29T04:56:25;101222.72;;;-0.22;100.00
62124;BME280;48110;47.532;19.078;2023-01-29T04:59:40;101243.41;;;-0.19;100.00
62124;BME280;48110;47.532;19.078;2023-01-29T05:02:50;101235.53;;;-0.18;100.00
62124;BME280;48110;47.532;19.078;2023-01-29T05:05:59;101228.72;;;-0.20;100.00
62124;BME280;48110;47.532;19.078;2023-01-29T05:09:10;101226.19;;;-0.22;100.00
62124;BME280;48110;47.532;19.078;2023-01-29T05:12:15;101217.75;;;-0.27;100.00
62124;BME280;48110;47.532;19.078;2023-01-29T05:15:32;101223.87;;;-0.28;100.00
62124;BME280;48110;47.532;19.078;2023-01-29T05:18:42;101232.03;;;-0.34;100.00
62124;BME280;48110;47.532;19.078;2023-01-29T05:21:49;101230.09;;;-0.30;100.00
62124;BME280;48110;47.532;19.078;2023-01-29T05:24:59;101217.69;;;-0.25;100.00
62124;BME280;48110;47.532;19.078;2023-01-29T05:28:07;101214.16;;;-0.24;100.00
62124;BME280;48110;47.532;19.078;2023-01-29T05:31:22;101220.19;;;-0.24;100.00
62124;BME280;48110;47.532;19.078;2023-01-29T05:34:28;101216.16;;;-0.29;100.00
62124;BME280;48110;47.532;19.078;2023-01-29T05:37:36;101220.97;;;-0.22;100.00
62124;BME280;48110;47.532;19.078;2023-01-29T05:41:03;101226.19;;;-0.22;100.00
62124;BME280;48110;47.532;19.078;2023-01-29T05:44:13;101218.16;;;-0.34;100.00
62124;BME280;48110;47.532;19.078;2023-01-29T05:47:20;101227.69;;;-0.18;100.00
62124;BME280;48110;47.532;19.078;2023-01-29T05:50:31;101226.25;;;-0.23;100.00
62124;BME280;48110;47.532;19.078;2023-01-29T05:53:39;101234.69;;;-0.18;100.00
62124;BME280;48110;47.532;19.078;2023-01-29T05:56:51;101226.84;;;-0.18;100.00
62124;BME280;48110;47.532;19.078;2023-01-29T06:00:01;101237.53;;;-0.23;100.00
62124;BME280;48110;47.532;19.078;2023-01-29T06:03:15;101239.03;;;-0.19;100.00
62124;BME280;48110;47.532;19.078;2023-01-29T06:06:25;101241.59;;;-0.17;100.00
62124;BME280;48110;47.532;19.078;2023-01-29T06:09:32;101241.34;;;-0.13;100.00
62124;BME280;48110;47.532;19.078;2023-01-29T06:12:41;101247.03;;;-0.22;100.00
62124;BME280;48110;47.532;19.078;2023-01-29T06:15:55;101240.66;;;-0.16;100.00
62124;BME280;48110;47.532;19.078;2023-01-29T06:19:03;101250.50;;;-0.21;100.00
62124;BME280;48110;47.532;19.078;2023-01-29T06:22:11;101256.38;;;-0.18;100.00
62124;BME280;48110;47.532;19.078;2023-01-29T06:25:21;101262.84;;;-0.25;100.00
62124;BME280;48110;47.532;19.078;2023-01-29T06:28:28;101258.94;;;-0.16;100.00
62124;BME280;48110;47.532;19.078;2023-01-29T06:31:41;101272.44;;;-0.25;100.00
62124;BME280;48110;47.532;19.078;2023-01-29T06:34:49;101276.94;;;-0.29;100.00
62124;BME280;48110;47.532;19.078;2023-01-29T06:37:58;101283.94;;;-0.29;100.00
62124;BME280;48110;47.532;19.078;2023-01-29T06:41:10;101277.16;;;-0.33;100.00
62124;BME280;48110;47.532;19.078;2023-01-29T06:44:21;101292.38;;;-0.24;100.00
62124;BME280;48110;47.532;19.078;2023-01-29T06:47:26;101295.56;;;-0.19;100.00
62124;BME280;48110;47.532;19.078;2023-01-29T06:50:35;101300.88;;;-0.21;100.00
62124;BME280;48110;47.532;19.078;2023-01-29T06:53:41;101300.41;;;-0.29;100.00
62124;BME280;48110;47.532;19.078;2023-01-29T06:56:51;101299.72;;;-0.32;100.00
62124;BME280;48110;47.532;19.078;2023-01-29T06:59:57;101295.97;;;-0.27;100.00
62124;BME280;48110;47.532;19.078;2023-01-29T07:03:07;101301.78;;;-0.22;100.00
62124;BME280;48110;47.532;19.078;2023-01-29T07:06:15;101300.94;;;-0.22;100.00
62124;BME280;48110;47.532;19.078;2023-01-29T07:09:25;101293.12;;;-0.22;100.00
62124;BME280;48110;47.532;19.078;2023-01-29T07:12:31;101296.59;;;-0.22;100.00
62124;BME280;48110;47.532;19.078;2023-01-29T07:15:40;101290.34;;;-0.19;100.00
62124;BME280;48110;47.532;19.078;2023-01-29T07:18:50;101289.84;;;-0.26;100.00
62124;BME280;48110;47.532;19.078;2023-01-29T07:22:04;101290.34;;;-0.19;100.00
62124;BME280;48110;47.532;19.078;2023-01-29T07:25:14;101287.06;;;-0.23;100.00
62124;BME280;48110;47.532;19.078;2023-01-29T07:28:22;101292.16;;;-0.20;100.00
62124;BME280;48110;47.532;19.078;2023-01-29T07:31:30;101282.31;;;-0.15;100.00
62124;BME280;48110;47.532;19.078;2023-01-29T07:34:39;101274.28;;;-0.10;100.00
62124;BME280;48110;47.532;19.078;2023-01-29T07:37:48;101283.25;;;-0.16;100.00
62124;BME280;48110;47.532;19.078;2023-01-29T07:40:56;101282.62;;;-0.21;100.00
62124;BME280;48110;47.532;19.078;2023-01-29T07:44:07;101273.94;;;-0.04;100.00
62124;BME280;48110;47.532;19.078;2023-01-29T07:47:19;101264.34;;;-0.04;100.00
62124;BME280;48110;47.532;19.078;2023-01-29T07:50:27;101265.38;;;-0.06;100.00
62124;BME280;48110;47.532;19.078;2023-01-29T07:53:38;101259.31;;;-0.07;100.00
62124;BME280;48110;47.532;19.078;2023-01-29T07:56:49;101279.88;;;0.15;100.00
62124;BME280;48110;47.532;19.078;2023-01-29T07:59:56;101272.31;;;0.11;100.00
62124;BME280;48110;47.532;19.078;2023-01-29T08:03:04;101272.91;;;0.16;100.00
62124;BME280;48110;47.532;19.078;2023-01-29T08:06:15;101273.75;;;0.16;100.00
62124;BME280;48110;47.532;19.078;2023-01-29T08:09:23;101279.16;;;0.13;100.00
62124;BME280;48110;47.532;19.078;2023-01-29T08:12:31;101277.37;;;0.14;100.00
62124;BME280;48110;47.532;19.078;2023-01-29T08:15:44;101285.75;;;0.03;100.00
62124;BME280;48110;47.532;19.078;2023-01-29T08:18:54;101283.59;;;0.11;100.00
62124;BME280;48110;47.532;19.078;2023-01-29T08:22:02;101282.19;;;0.21;100.00
62124;BME280;48110;47.532;19.078;2023-01-29T08:25:11;101288.38;;;0.03;100.00
62124;BME280;48110;47.532;19.078;2023-01-29T08:28:20;101280.91;;;0.13;100.00
62124;BME280;48110;47.532;19.078;2023-01-29T08:31:26;101296.72;;;-0.08;100.00
62124;BME280;48110;47.532;19.078;2023-01-29T08:34:36;101287.81;;;-0.04;100.00
62124;BME280;48110;47.532;19.078;2023-01-29T08:37:51;101290.66;;;0.09;100.00
62124;BME280;48110;47.532;19.078;2023-01-29T08:40:57;101291.50;;;0.10;100.00
62124;BME280;48110;47.532;19.078;2023-01-29T08:44:05;101304.22;;;0.16;100.00
62124;BME280;48110;47.532;19.078;2023-01-29T08:47:13;101313.38;;;0.07;100.00
62124;BME280;48110;47.532;19.078;2023-01-29T08:50:22;101316.38;;;-0.01;100.00
62124;BME280;48110;47.532;19.078;2023-01-29T08:53:30;101338.53;;;0.08;100.00
62124;BME280;48110;47.532;19.078;2023-01-29T08:56:39;101338.91;;;0.00;100.00
62124;BME280;48110;47.532;19.078;2023-01-29T08:59:48;101336.47;;;-0.03;100.00
62124;BME280;48110;47.532;19.078;2023-01-29T09:02:55;101342.91;;;0.08;100.00
62124;BME280;48110;47.532;19.078;2023-01-29T09:06:03;101340.00;;;-0.04;100.00
62124;BME280;48110;47.532;19.078;2023-01-29T09:09:13;101350.28;;;-0.01;100.00
62124;BME280;48110;47.532;19.078;2023-01-29T09:12:20;101344.06;;;-0.15;100.00
62124;BME280;48110;47.532;19.078;2023-01-29T09:15:27;101339.78;;;-0.16;100.00
62124;BME280;48110;47.532;19.078;2023-01-29T09:18:33;101343.06;;;-0.13;100.00
62124;BME280;48110;47.532;19.078;2023-01-29T09:21:41;101327.88;;;-0.22;100.00
62124;BME280;48110;47.532;19.078;2023-01-29T09:24:51;101336.72;;;-0.24;100.00
62124;BME280;48110;47.532;19.078;2023-01-29T09:27:58;101340.28;;;-0.10;100.00
62124;BME280;48110;47.532;19.078;2023-01-29T09:31:04;101336.22;;;0.02;100.00
62124;BME280;48110;47.532;19.078;2023-01-29T09:34:11;101343.59;;;-0.06;100.00
62124;BME280;48110;47.532;19.078;2023-01-29T09:37:18;101349.28;;;0.02;100.00
62124;BME280;48110;47.532;19.078;2023-01-29T09:43:58;101347.03;;;0.12;100.00
62124;BME280;48110;47.532;19.078;2023-01-29T09:47:10;101336.31;;;0.18;100.00
62124;BME280;48110;47.532;19.078;2023-01-29T09:50:21;101355.78;;;0.28;100.00
62124;BME280;48110;47.532;19.078;2023-01-29T09:53:31;101357.78;;;0.23;100.00
62124;BME280;48110;47.532;19.078;2023-01-29T09:56:45;101351.97;;;0.18;100.00
62124;BME280;48110;47.532;19.078;2023-01-29T09:59:56;101359.63;;;0.21;100.00
62124;BME280;48110;47.532;19.078;2023-01-29T10:03:14;101345.41;;;0.26;100.00
62124;BME280;48110;47.532;19.078;2023-01-29T10:13:18;101361.72;;;0.14;100.00
62124;BME280;48110;47.532;19.078;2023-01-29T10:19:50;101361.09;;;0.26;100.00
62124;BME280;48110;47.532;19.078;2023-01-29T10:23:15;101361.00;;;0.11;100.00
62124;BME280;48110;47.532;19.078;2023-01-29T10:26:25;101355.16;;;0.40;100.00
62124;BME280;48110;47.532;19.078;2023-01-29T10:29:36;101353.78;;;0.33;100.00
62124;BME280;48110;47.532;19.078;2023-01-29T10:32:47;101350.78;;;0.40;100.00
62124;BME280;48110;47.532;19.078;2023-01-29T10:35:59;101346.84;;;0.49;100.00
62124;BME280;48110;47.532;19.078;2023-01-29T10:39:14;101348.59;;;0.49;100.00
62124;BME280;48110;47.532;19.078;2023-01-29T10:42:34;101363.63;;;0.28;100.00
62124;BME280;48110;47.532;19.078;2023-01-29T10:49:07;101351.56;;;0.25;100.00
62124;BME280;48110;47.532;19.078;2023-01-29T11:02:46;101327.03;;;0.12;100.00
62124;BME280;48110;47.532;19.078;2023-01-29T11:09:08;101316.88;;;0.06;100.00
62124;BME280;48110;47.532;19.078;2023-01-29T11:12:17;101314.16;;;0.09;100.00
62124;BME280;48110;47.532;19.078;2023-01-29T11:15:27;101315.44;;;0.00;100.00
62124;BME280;48110;47.532;19.078;2023-01-29T11:22:04;101308.44;;;0.18;100.00
62124;BME280;48110;47.532;19.078;2023-01-29T11:25:18;101292.72;;;0.03;100.00
62124;BME280;48110;47.532;19.078;2023-01-29T11:28:35;101283.22;;;0.19;100.00
62124;BME280;48110;47.532;19.078;2023-01-29T11:31:42;101297.16;;;0.18;100.00
62124;BME280;48110;47.532;19.078;2023-01-29T11:34:55;101284.63;;;0.24;100.00
62124;BME280;48110;47.532;19.078;2023-01-29T11:38:13;101281.56;;;0.33;100.00
62124;BME280;48110;47.532;19.078;2023-01-29T11:41:23;101268.41;;;0.35;100.00
62124;BME280;48110;47.532;19.078;2023-01-29T11:44:39;101262.88;;;0.41;100.00
62124;BME280;48110;47.532;19.078;2023-01-29T11:47:51;101264.00;;;0.53;100.00
62124;BME280;48110;47.532;19.078;2023-01-29T11:51:01;101255.56;;;0.48;100.00
62124;BME280;48110;47.532;19.078;2023-01-29T11:54:12;101245.03;;;0.33;100.00
62124;BME280;48110;47.532;19.078;2023-01-29T11:57:26;101245.69;;;0.37;100.00
62124;BME280;48110;47.532;19.078;2023-01-29T12:00:38;101244.06;;;0.34;100.00
62124;BME280;48110;47.532;19.078;2023-01-29T12:03:48;101239.63;;;0.36;99.95
62124;BME280;48110;47.532;19.078;2023-01-29T12:06:56;101245.53;;;0.40;99.97
62124;BME280;48110;47.532;19.078;2023-01-29T12:10:03;101244.94;;;0.51;98.29
62124;BME280;48110;47.532;19.078;2023-01-29T12:19:57;101241.25;;;0.55;96.82
62124;BME280;48110;47.532;19.078;2023-01-29T12:26:20;101227.63;;;0.81;94.11
62124;BME280;48110;47.532;19.078;2023-01-29T12:29:36;101232.50;;;0.56;93.99
62124;BME280;48110;47.532;19.078;2023-01-29T12:36:09;101216.91;;;0.38;93.70
62124;BME280;48110;47.532;19.078;2023-01-29T12:39:18;101231.56;;;0.57;92.91
62124;BME280;48110;47.532;19.078;2023-01-29T12:42:24;101227.53;;;0.67;90.79
62124;BME280;48110;47.532;19.078;2023-01-29T12:45:28;101233.16;;;0.91;89.46
62124;BME280;48110;47.532;19.078;2023-01-29T12:48:36;101226.37;;;0.72;90.38
62124;BME280;48110;47.532;19.078;2023-01-29T12:52:07;101230.81;;;0.70;90.75
62124;BME280;48110;47.532;19.078;2023-01-29T12:55:17;101228.84;;;1.05;89.21
62124;BME280;48110;47.532;19.078;2023-01-29T12:58:28;101223.16;;;0.67;88.30
62124;BME280;48110;47.532;19.078;2023-01-29T13:01:35;101222.81;;;0.58;89.56
62124;BME280;48110;47.532;19.078;2023-01-29T13:04:44;101220.03;;;0.61;88.85
62124;BME280;48110;47.532;19.078;2023-01-29T13:07:58;101210.59;;;0.58;89.22
62124;BME280;48110;47.532;19.078;2023-01-29T13:11:10;101203.69;;;0.41;91.76
62124;BME280;48110;47.532;19.078;2023-01-29T13:14:19;101199.00;;;1.09;89.71
62124;BME280;48110;47.532;19.078;2023-01-29T13:17:29;101200.16;;;1.19;85.98
62124;BME280;48110;47.532;19.078;2023-01-29T13:20:41;101184.34;;;1.07;85.53
62124;BME280;48110;47.532;19.078;2023-01-29T13:24:04;101181.31;;;0.99;89.16
62124;BME280;48110;47.532;19.078;2023-01-29T13:27:26;101178.25;;;1.36;83.60
62124;BME280;48110;47.532;19.078;2023-01-29T13:30:31;101171.56;;;1.46;83.42
62124;BME280;48110;47.532;19.078;2023-01-29T13:33:39;101174.22;;;2.31;77.00
62124;BME280;48110;47.532;19.078;2023-01-29T13:36:48;101159.47;;;1.59;77.43
62124;BME280;48110;47.532;19.078;2023-01-29T13:39:57;101165.37;;;1.91;76.89
62124;BME280;48110;47.532;19.078;2023-01-29T13:43:10;101175.69;;;1.50;77.76
62124;BME280;48110;47.532;19.078;2023-01-29T13:46:25;101179.94;;;1.37;78.46
62124;BME280;48110;47.532;19.078;2023-01-29T13:49:41;101181.94;;;1.48;79.68
62124;BME280;48110;47.532;19.078;2023-01-29T13:52:57;101189.53;;;1.66;77.45
62124;BME280;48110;47.532;19.078;2023-01-29T14:06:02;101160.19;;;1.17;79.92
62124;BME280;48110;47.532;19.078;2023-01-29T14:12:35;101188.19;;;0.70;81.57
62124;BME280;48110;47.532;19.078;2023-01-29T14:15:43;101175.06;;;0.56;82.18
62124;BME280;48110;47.532;19.078;2023-01-29T14:19:00;101187.50;;;0.35;84.28
62124;BME280;48110;47.532;19.078;2023-01-29T14:22:16;101190.94;;;0.20;85.63
62124;BME280;48110;47.532;19.078;2023-01-29T14:25:29;101193.41;;;0.23;86.64
62124;BME280;48110;47.532;19.078;2023-01-29T14:28:37;101193.25;;;-0.07;88.27
62124;BME280;48110;47.532;19.078;2023-01-29T14:35:03;101193.84;;;-0.35;90.23
62124;BME280;48110;47.532;19.078;2023-01-29T14:38:12;101195.63;;;-0.70;92.33
62124;BME280;48110;47.532;19.078;2023-01-29T14:41:26;101204.25;;;-0.87;94.66
62124;BME280;48110;47.532;19.078;2023-01-29T14:51:11;101194.34;;;-1.14;99.18
62124;BME280;48110;47.532;19.078;2023-01-29T14:54:23;101184.59;;;-1.28;99.50
62124;BME280;48110;47.532;19.078;2023-01-29T14:57:32;101185.00;;;-1.18;100.00
62124;BME280;48110;47.532;19.078;2023-01-29T15:00:40;101196.25;;;-1.18;99.91
62124;BME280;48110;47.532;19.078;2023-01-29T15:03:52;101187.94;;;-1.07;100.00
62124;BME280;48110;47.532;19.078;2023-01-29T15:13:44;101187.13;;;-1.26;100.00
62124;BME280;48110;47.532;19.078;2023-01-29T15:23:36;101182.50;;;-1.57;100.00
62124;BME280;48110;47.532;19.078;2023-01-29T15:26:45;101176.19;;;-1.52;100.00
62124;BME280;48110;47.532;19.078;2023-01-29T15:29:55;101162.97;;;-1.66;100.00
62124;BME280;48110;47.532;19.078;2023-01-29T15:33:04;101168.87;;;-1.62;100.00
62124;BME280;48110;47.532;19.078;2023-01-29T15:36:27;101177.88;;;-1.69;100.00
62124;BME280;48110;47.532;19.078;2023-01-29T15:39:38;101178.84;;;-1.72;100.00
62124;BME280;48110;47.532;19.078;2023-01-29T15:42:52;101182.63;;;-1.79;100.00
62124;BME280;48110;47.532;19.078;2023-01-29T15:46:03;101178.50;;;-1.83;100.00
62124;BME280;48110;47.532;19.078;2023-01-29T15:49:16;101183.16;;;-1.90;100.00
62124;BME280;48110;47.532;19.078;2023-01-29T15:52:26;101188.69;;;-1.97;100.00
62124;BME280;48110;47.532;19.078;2023-01-29T15:55:36;101182.50;;;-1.95;100.00
62124;BME280;48110;47.532;19.078;2023-01-29T15:58:48;101182.00;;;-2.03;100.00
62124;BME280;48110;47.532;19.078;2023-01-29T16:01:57;101187.34;;;-2.06;100.00
62124;BME280;48110;47.532;19.078;2023-01-29T16:05:04;101192.03;;;-2.14;100.00
62124;BME280;48110;47.532;19.078;2023-01-29T16:08:11;101184.94;;;-2.10;100.00
62124;BME280;48110;47.532;19.078;2023-01-29T16:11:19;101188.97;;;-2.03;100.00
62124;BME280;48110;47.532;19.078;2023-01-29T16:14:24;101189.94;;;-2.06;100.00
62124;BME280;48110;47.532;19.078;2023-01-29T16:17:32;101195.41;;;-2.12;100.00
62124;BME280;48110;47.532;19.078;2023-01-29T16:20:44;101190.94;;;-2.08;100.00
62124;BME280;48110;47.532;19.078;2023-01-29T16:24:13;101190.09;;;-2.09;100.00
62124;BME280;48110;47.532;19.078;2023-01-29T16:27:31;101202.22;;;-2.09;100.00
62124;BME280;48110;47.532;19.078;2023-01-29T16:30:42;101203.09;;;-2.09;100.00
62124;BME280;48110;47.532;19.078;2023-01-29T16:33:47;101205.78;;;-2.12;100.00
62124;BME280;48110;47.532;19.078;2023-01-29T16:36:52;101212.38;;;-2.03;100.00
62124;BME280;48110;47.532;19.078;2023-01-29T16:39:58;101213.47;;;-2.09;100.00
62124;BME280;48110;47.532;19.078;2023-01-29T16:46:24;101218.69;;;-2.09;100.00
62124;BME280;48110;47.532;19.078;2023-01-29T16:52:56;101220.84;;;-2.18;100.00
62124;BME280;48110;47.532;19.078;2023-01-29T16:56:03;101221.59;;;-2.16;100.00
62124;BME280;48110;47.532;19.078;2023-01-29T16:59:47;101231.28;;;-2.20;100.00
62124;BME280;48110;47.532;19.078;2023-01-29T17:02:46;101216.09;;;-2.29;100.00
62124;BME280;48110;47.532;19.078;2023-01-29T17:05:54;101226.28;;;-2.25;100.00
62124;BME280;48110;47.532;19.078;2023-01-29T17:09:04;101228.19;;;-2.28;100.00
62124;BME280;48110;47.532;19.078;2023-01-29T17:12:13;101220.66;;;-2.34;100.00
62124;BME280;48110;47.532;19.078;2023-01-29T17:18:37;101225.00;;;-2.35;100.00
62124;BME280;48110;47.532;19.078;2023-01-29T17:21:42;101214.78;;;-2.39;100.00
62124;BME280;48110;47.532;19.078;2023-01-29T17:24:53;101219.19;;;-2.41;100.00
62124;BME280;48110;47.532;19.078;2023-01-29T17:28:02;101206.22;;;-2.41;100.00
62124;BME280;48110;47.532;19.078;2023-01-29T17:31:10;101204.09;;;-2.52;100.00
62124;BME280;48110;47.532;19.078;2023-01-29T17:34:19;101199.66;;;-2.50;100.00
62124;BME280;48110;47.532;19.078;2023-01-29T17:37:25;101196.22;;;-2.50;100.00
62124;BME280;48110;47.532;19.078;2023-01-29T17:40:41;101188.88;;;-2.61;100.00
62124;BME280;48110;47.532;19.078;2023-01-29T17:43:48;101191.59;;;-2.64;100.00
62124;BME280;48110;47.532;19.078;2023-01-29T17:46:57;101186.00;;;-2.75;100.00
62124;BME280;48110;47.532;19.078;2023-01-29T17:50:23;101180.81;;;-2.55;100.00
62124;BME280;48110;47.532;19.078;2023-01-29T17:53:33;101183.97;;;-2.67;100.00
62124;BME280;48110;47.532;19.078;2023-01-29T17:56:54;101182.41;;;-2.71;100.00
62124;BME280;48110;47.532;19.078;2023-01-29T18:00:11;101176.16;;;-2.67;100.00
62124;BME280;48110;47.532;19.078;2023-01-29T18:03:23;101165.19;;;-2.74;100.00
62124;BME280;48110;47.532;19.078;2023-01-29T18:06:32;101170.44;;;-2.75;100.00
62124;BME280;48110;47.532;19.078;2023-01-29T18:09:46;101167.91;;;-2.77;100.00
62124;BME280;48110;47.532;19.078;2023-01-29T18:12:53;101165.31;;;-2.77;100.00
62124;BME280;48110;47.532;19.078;2023-01-29T18:16:04;101159.47;;;-2.82;100.00
62124;BME280;48110;47.532;19.078;2023-01-29T18:19:19;101166.59;;;-2.87;100.00
62124;BME280;48110;47.532;19.078;2023-01-29T18:22:28;101166.47;;;-2.84;100.00
62124;BME280;48110;47.532;19.078;2023-01-29T18:25:35;101162.75;;;-2.98;100.00